Rzhev, Russia
Current Conditions -  °F | °C
As of 8:00 PM on Thursday 23 Oct 2014 (Local Time) from UUBW Reporting Station
Scattered Clouds Scattered Clouds  
Wind Chill:   Ceiling: Unl
Heat Index: 19°   Visibility: 6mi
Dew Point: 12°   Wind: 11mph
Humidity: 74%   Direction: 310°NW
Pressure: 30.36"   Gusts: NA
Location:  56.26°N, 34.33°E
Report Text: UUBW 231700Z 31005MPS 9999 SCT030 M07/M11 Q1028 NOSIG RMKSC055
Loading
Personal Weather Stations






























Interactive Weather Map
Tropical Storm Tracking
New forecast layout! Learn more

10-Day Weather Forecast

Advertisements
Track Severe Weather on mobile